sensor_id;sensor_type;location;lat;lon;timestamp;temperature;humidity
41924;DHT22;27613;48.116;11.656;2022-10-17T00:01:39;12.30;99.90
41924;DHT22;27613;48.116;11.656;2022-10-17T00:04:05;12.30;99.90
41924;DHT22;27613;48.116;11.656;2022-10-17T00:06:30;12.20;99.90
41924;DHT22;27613;48.116;11.656;2022-10-17T00:08:56;12.20;99.90
41924;DHT22;27613;48.116;11.656;2022-10-17T00:11:22;12.20;99.90
41924;DHT22;27613;48.116;11.656;2022-10-17T00:13:50;12.10;99.90
41924;DHT22;27613;48.116;11.656;2022-10-17T00:16:26;12.10;99.90
41924;DHT22;27613;48.116;11.656;2022-10-17T00:18:52;12.10;99.90
41924;DHT22;27613;48.116;11.656;2022-10-17T00:21:19;12.00;99.90
41924;DHT22;27613;48.116;11.656;2022-10-17T00:23:46;12.00;99.90
41924;DHT22;27613;48.116;11.656;2022-10-17T00:26:11;12.00;99.90
41924;DHT22;27613;48.116;11.656;2022-10-17T00:28:37;11.90;99.90
41924;DHT22;27613;48.116;11.656;2022-10-17T00:31:04;11.90;99.90
41924;DHT22;27613;48.116;11.656;2022-10-17T00:33:31;11.90;99.90
41924;DHT22;27613;48.116;11.656;2022-10-17T00:36:12;11.90;99.90
41924;DHT22;27613;48.116;11.656;2022-10-17T00:38:39;11.90;99.90
41924;DHT22;27613;48.116;11.656;2022-10-17T00:41:06;11.80;99.90
41924;DHT22;27613;48.116;11.656;2022-10-17T00:44:04;11.80;99.90
41924;DHT22;27613;48.116;11.656;2022-10-17T00:46:33;11.80;99.90
41924;DHT22;27613;48.116;11.656;2022-10-17T00:49:10;11.80;99.90
41924;DHT22;27613;48.116;11.656;2022-10-17T00:51:40;11.70;99.90
41924;DHT22;27613;48.116;11.656;2022-10-17T00:54:08;11.60;99.90
41924;DHT22;27613;48.116;11.656;2022-10-17T00:56:35;11.60;99.90
41924;DHT22;27613;48.116;11.656;2022-10-17T00:59:02;11.60;99.90
41924;DHT22;27613;48.116;11.656;2022-10-17T01:01:27;11.50;99.90
41924;DHT22;27613;48.116;11.656;2022-10-17T01:03:53;11.40;99.90
41924;DHT22;27613;48.116;11.656;2022-10-17T01:06:18;11.40;99.90
41924;DHT22;27613;48.116;11.656;2022-10-17T01:08:44;11.40;99.90
41924;DHT22;27613;48.116;11.656;2022-10-17T01:16:35;11.30;99.90
41924;DHT22;27613;48.116;11.656;2022-10-17T01:22:13;11.20;99.90
41924;DHT22;27613;48.116;11.656;2022-10-17T01:27:50;11.20;99.90
41924;DHT22;27613;48.116;11.656;2022-10-17T01:30:42;11.20;99.90
41924;DHT22;27613;48.116;11.656;2022-10-17T01:33:13;11.10;99.90
41924;DHT22;27613;48.116;11.656;2022-10-17T01:35:49;11.10;99.90
41924;DHT22;27613;48.116;11.656;2022-10-17T01:38:24;11.00;99.90
41924;DHT22;27613;48.116;11.656;2022-10-17T01:41:04;11.00;99.90
41924;DHT22;27613;48.116;11.656;2022-10-17T01:43:38;10.90;99.90
41924;DHT22;27613;48.116;11.656;2022-10-17T01:48:45;10.90;99.90
41924;DHT22;27613;48.116;11.656;2022-10-17T01:53:49;10.90;99.90
41924;DHT22;27613;48.116;11.656;2022-10-17T01:56:17;10.90;99.90
41924;DHT22;27613;48.116;11.656;2022-10-17T01:58:49;10.90;99.90
41924;DHT22;27613;48.116;11.656;2022-10-17T02:01:17;10.80;99.90
41924;DHT22;27613;48.116;11.656;2022-10-17T02:03:44;10.80;99.90
41924;DHT22;27613;48.116;11.656;2022-10-17T02:06:11;10.80;99.90
41924;DHT22;27613;48.116;11.656;2022-10-17T02:08:46;10.70;99.90
41924;DHT22;27613;48.116;11.656;2022-10-17T02:11:23;10.70;99.90
41924;DHT22;27613;48.116;11.656;2022-10-17T02:16:19;10.70;99.90
41924;DHT22;27613;48.116;11.656;2022-10-17T02:19:44;10.70;99.90
41924;DHT22;27613;48.116;11.656;2022-10-17T02:24:49;10.60;99.90
41924;DHT22;27613;48.116;11.656;2022-10-17T02:28:02;10.60;99.90
41924;DHT22;27613;48.116;11.656;2022-10-17T02:30:10;10.50;99.90
41924;DHT22;27613;48.116;11.656;2022-10-17T02:32:55;10.40;99.90
41924;DHT22;27613;48.116;11.656;2022-10-17T02:35:27;10.40;99.90
41924;DHT22;27613;48.116;11.656;2022-10-17T02:37:55;10.40;99.90
41924;DHT22;27613;48.116;11.656;2022-10-17T02:40:23;10.30;99.90
41924;DHT22;27613;48.116;11.656;2022-10-17T02:42:52;10.30;99.90
41924;DHT22;27613;48.116;11.656;2022-10-17T02:45:19;10.30;99.90
41924;DHT22;27613;48.116;11.656;2022-10-17T02:48:04;10.30;99.90
41924;DHT22;27613;48.116;11.656;2022-10-17T02:50:33;10.20;99.90
41924;DHT22;27613;48.116;11.656;2022-10-17T02:53:07;10.20;99.90
41924;DHT22;27613;48.116;11.656;2022-10-17T02:55:42;10.10;99.90
41924;DHT22;27613;48.116;11.656;2022-10-17T02:58:20;10.20;99.90
41924;DHT22;27613;48.116;11.656;2022-10-17T03:00:48;10.10;99.90
41924;DHT22;27613;48.116;11.656;2022-10-17T03:03:23;10.10;99.90
41924;DHT22;27613;48.116;11.656;2022-10-17T03:05:50;10.10;99.90
41924;DHT22;27613;48.116;11.656;2022-10-17T03:08:16;10.10;99.90
41924;DHT22;27613;48.116;11.656;2022-10-17T03:10:42;10.00;99.90
41924;DHT22;27613;48.116;11.656;2022-10-17T03:13:07;10.00;99.90
41924;DHT22;27613;48.116;11.656;2022-10-17T03:15:33;10.00;99.90
41924;DHT22;27613;48.116;11.656;2022-10-17T03:17:58;9.90;99.90
41924;DHT22;27613;48.116;11.656;2022-10-17T03:20:24;9.90;99.90
41924;DHT22;27613;48.116;11.656;2022-10-17T03:22:50;9.90;99.90
41924;DHT22;27613;48.116;11.656;2022-10-17T03:25:15;9.90;99.90
41924;DHT22;27613;48.116;11.656;2022-10-17T03:27:41;9.90;99.90
41924;DHT22;27613;48.116;11.656;2022-10-17T03:30:07;9.90;99.90
41924;DHT22;27613;48.116;11.656;2022-10-17T03:32:33;9.90;99.90
41924;DHT22;27613;48.116;11.656;2022-10-17T03:34:59;9.80;99.90
41924;DHT22;27613;48.116;11.656;2022-10-17T03:37:24;9.80;99.90
41924;DHT22;27613;48.116;11.656;2022-10-17T03:39:50;9.90;99.90
41924;DHT22;27613;48.116;11.656;2022-10-17T03:42:15;9.80;99.90
41924;DHT22;27613;48.116;11.656;2022-10-17T03:44:41;9.70;99.90
41924;DHT22;27613;48.116;11.656;2022-10-17T03:47:07;9.70;99.90
41924;DHT22;27613;48.116;11.656;2022-10-17T03:49:32;9.70;99.90
41924;DHT22;27613;48.116;11.656;2022-10-17T03:51:58;9.70;99.90
41924;DHT22;27613;48.116;11.656;2022-10-17T03:54:23;9.60;99.90
41924;DHT22;27613;48.116;11.656;2022-10-17T03:56:49;9.60;99.90
41924;DHT22;27613;48.116;11.656;2022-10-17T03:59:15;9.60;99.90
41924;DHT22;27613;48.116;11.656;2022-10-17T04:01:41;9.50;99.90
41924;DHT22;27613;48.116;11.656;2022-10-17T04:04:07;9.50;99.90
41924;DHT22;27613;48.116;11.656;2022-10-17T04:06:33;9.50;99.90
41924;DHT22;27613;48.116;11.656;2022-10-17T04:08:58;9.40;99.90
41924;DHT22;27613;48.116;11.656;2022-10-17T04:11:24;9.40;99.90
41924;DHT22;27613;48.116;11.656;2022-10-17T04:13:54;9.40;99.90
41924;DHT22;27613;48.116;11.656;2022-10-17T04:16:21;9.40;99.90
41924;DHT22;27613;48.116;11.656;2022-10-17T04:18:46;9.30;99.90
41924;DHT22;27613;48.116;11.656;2022-10-17T04:21:12;9.30;99.90
41924;DHT22;27613;48.116;11.656;2022-10-17T04:23:38;9.30;99.90
41924;DHT22;27613;48.116;11.656;2022-10-17T04:26:05;9.30;99.90
41924;DHT22;27613;48.116;11.656;2022-10-17T04:28:31;9.30;99.90
41924;DHT22;27613;48.116;11.656;2022-10-17T04:30:58;9.30;99.90
41924;DHT22;27613;48.116;11.656;2022-10-17T04:33:27;9.20;99.90
41924;DHT22;27613;48.116;11.656;2022-10-17T04:36:01;9.20;99.90
41924;DHT22;27613;48.116;11.656;2022-10-17T04:38:28;9.20;99.90
41924;DHT22;27613;48.116;11.656;2022-10-17T04:40:56;9.20;99.90
41924;DHT22;27613;48.116;11.656;2022-10-17T04:43:22;9.20;99.90
41924;DHT22;27613;48.116;11.656;2022-10-17T04:45:47;9.10;99.90
41924;DHT22;27613;48.116;11.656;2022-10-17T04:48:13;9.10;99.90
41924;DHT22;27613;48.116;11.656;2022-10-17T04:50:39;9.20;99.90
41924;DHT22;27613;48.116;11.656;2022-10-17T04:53:04;9.10;99.90
41924;DHT22;27613;48.116;11.656;2022-10-17T04:55:30;9.00;99.90
41924;DHT22;27613;48.116;11.656;2022-10-17T04:57:55;9.00;99.90
41924;DHT22;27613;48.116;11.656;2022-10-17T05:00:21;9.00;99.90
41924;DHT22;27613;48.116;11.656;2022-10-17T05:02:46;8.90;99.90
41924;DHT22;27613;48.116;11.656;2022-10-17T05:05:12;8.90;99.90
41924;DHT22;27613;48.116;11.656;2022-10-17T05:07:41;8.80;99.90
41924;DHT22;27613;48.116;11.656;2022-10-17T05:10:07;8.80;99.90
41924;DHT22;27613;48.116;11.656;2022-10-17T05:12:32;8.90;99.90
41924;DHT22;27613;48.116;11.656;2022-10-17T05:14:58;8.80;99.90
41924;DHT22;27613;48.116;11.656;2022-10-17T05:17:24;8.80;99.90
41924;DHT22;27613;48.116;11.656;2022-10-17T05:19:52;8.80;99.90
41924;DHT22;27613;48.116;11.656;2022-10-17T05:22:17;8.80;99.90
41924;DHT22;27613;48.116;11.656;2022-10-17T05:24:43;8.70;99.90
41924;DHT22;27613;48.116;11.656;2022-10-17T05:27:08;8.70;99.90
41924;DHT22;27613;48.116;11.656;2022-10-17T05:29:34;8.70;99.90
41924;DHT22;27613;48.116;11.656;2022-10-17T05:31:59;8.70;99.90
41924;DHT22;27613;48.116;11.656;2022-10-17T05:34:25;8.70;99.90
41924;DHT22;27613;48.116;11.656;2022-10-17T05:36:51;8.60;99.90
41924;DHT22;27613;48.116;11.656;2022-10-17T05:39:16;8.60;99.90
41924;DHT22;27613;48.116;11.656;2022-10-17T05:41:44;8.60;99.90
41924;DHT22;27613;48.116;11.656;2022-10-17T05:44:10;8.70;99.90
41924;DHT22;27613;48.116;11.656;2022-10-17T05:46:36;8.70;99.90
41924;DHT22;27613;48.116;11.656;2022-10-17T05:49:02;8.70;99.90
41924;DHT22;27613;48.116;11.656;2022-10-17T05:51:27;8.70;99.90
41924;DHT22;27613;48.116;11.656;2022-10-17T05:53:53;8.70;99.90
41924;DHT22;27613;48.116;11.656;2022-10-17T05:56:18;8.70;99.90
41924;DHT22;27613;48.116;11.656;2022-10-17T05:58:44;8.80;99.90
41924;DHT22;27613;48.116;11.656;2022-10-17T06:01:12;8.80;99.90
41924;DHT22;27613;48.116;11.656;2022-10-17T06:03:37;8.80;99.90
41924;DHT22;27613;48.116;11.656;2022-10-17T06:06:05;8.80;99.90
41924;DHT22;27613;48.116;11.656;2022-10-17T06:08:31;8.90;99.90
41924;DHT22;27613;48.116;11.656;2022-10-17T06:10:57;8.90;99.90
41924;DHT22;27613;48.116;11.656;2022-10-17T06:13:22;8.90;99.90
41924;DHT22;27613;48.116;11.656;2022-10-17T06:15:48;8.90;99.90
41924;DHT22;27613;48.116;11.656;2022-10-17T06:18:13;8.90;99.90
41924;DHT22;27613;48.116;11.656;2022-10-17T06:20:39;8.90;99.90
41924;DHT22;27613;48.116;11.656;2022-10-17T06:23:05;9.00;99.90
41924;DHT22;27613;48.116;11.656;2022-10-17T06:25:31;9.00;99.90
41924;DHT22;27613;48.116;11.656;2022-10-17T06:27:56;9.20;99.90
41924;DHT22;27613;48.116;11.656;2022-10-17T06:30:22;9.20;99.90
41924;DHT22;27613;48.116;11.656;2022-10-17T06:32:48;9.20;99.90
41924;DHT22;27613;48.116;11.656;2022-10-17T06:35:13;9.30;99.90
41924;DHT22;27613;48.116;11.656;2022-10-17T06:37:47;9.30;99.90
41924;DHT22;27613;48.116;11.656;2022-10-17T06:40:13;9.40;99.90
41924;DHT22;27613;48.116;11.656;2022-10-17T06:42:42;9.40;99.90
41924;DHT22;27613;48.116;11.656;2022-10-17T06:45:08;9.50;99.90
41924;DHT22;27613;48.116;11.656;2022-10-17T06:47:34;9.60;99.90
41924;DHT22;27613;48.116;11.656;2022-10-17T06:50:00;9.70;99.90
41924;DHT22;27613;48.116;11.656;2022-10-17T06:52:26;9.80;99.90
41924;DHT22;27613;48.116;11.656;2022-10-17T06:54:52;10.00;99.90
41924;DHT22;27613;48.116;11.656;2022-10-17T06:57:17;10.10;99.90
41924;DHT22;27613;48.116;11.656;2022-10-17T06:59:43;10.30;99.90
41924;DHT22;27613;48.116;11.656;2022-10-17T07:02:09;10.40;99.90
41924;DHT22;27613;48.116;11.656;2022-10-17T07:04:35;10.50;99.90
41924;DHT22;27613;48.116;11.656;2022-10-17T07:07:01;10.70;99.90
41924;DHT22;27613;48.116;11.656;2022-10-17T07:09:28;10.80;99.90
41924;DHT22;27613;48.116;11.656;2022-10-17T07:11:54;11.00;99.90
41924;DHT22;27613;48.116;11.656;2022-10-17T07:14:20;11.30;99.90
41924;DHT22;27613;48.116;11.656;2022-10-17T07:16:45;11.60;99.90
41924;DHT22;27613;48.116;11.656;2022-10-17T07:19:11;12.00;99.90
41924;DHT22;27613;48.116;11.656;2022-10-17T07:21:36;12.60;99.90
41924;DHT22;27613;48.116;11.656;2022-10-17T07:24:02;14.00;99.90
41924;DHT22;27613;48.116;11.656;2022-10-17T07:26:28;15.40;98.80
41924;DHT22;27613;48.116;11.656;2022-10-17T07:28:54;16.70;93.70
41924;DHT22;27613;48.116;11.656;2022-10-17T07:31:21;17.20;90.60
41924;DHT22;27613;48.116;11.656;2022-10-17T07:33:47;17.70;88.80
41924;DHT22;27613;48.116;11.656;2022-10-17T07:36:14;19.30;82.20
41924;DHT22;27613;48.116;11.656;2022-10-17T07:38:40;20.80;76.90
41924;DHT22;27613;48.116;11.656;2022-10-17T07:41:07;21.90;73.00
41924;DHT22;27613;48.116;11.656;2022-10-17T07:43:34;22.80;68.60
41924;DHT22;27613;48.116;11.656;2022-10-17T07:46:01;23.50;67.60
41924;DHT22;27613;48.116;11.656;2022-10-17T07:48:27;23.90;65.30
41924;DHT22;27613;48.116;11.656;2022-10-17T07:50:53;24.30;62.70
41924;DHT22;27613;48.116;11.656;2022-10-17T07:53:19;24.20;61.90
41924;DHT22;27613;48.116;11.656;2022-10-17T07:55:45;23.30;63.00
41924;DHT22;27613;48.116;11.656;2022-10-17T07:58:12;23.00;63.40
41924;DHT22;27613;48.116;11.656;2022-10-17T08:00:38;23.20;64.10
41924;DHT22;27613;48.116;11.656;2022-10-17T08:03:04;23.50;62.40
41924;DHT22;27613;48.116;11.656;2022-10-17T08:05:30;22.60;63.80
41924;DHT22;27613;48.116;11.656;2022-10-17T08:07:56;23.20;64.30
41924;DHT22;27613;48.116;11.656;2022-10-17T08:10:22;23.60;62.10
41924;DHT22;27613;48.116;11.656;2022-10-17T08:12:52;24.00;61.10
41924;DHT22;27613;48.116;11.656;2022-10-17T08:15:18;25.10;58.90
41924;DHT22;27613;48.116;11.656;2022-10-17T08:17:44;23.20;62.50
41924;DHT22;27613;48.116;11.656;2022-10-17T08:20:10;24.60;61.00
41924;DHT22;27613;48.116;11.656;2022-10-17T08:22:36;24.10;59.70
41924;DHT22;27613;48.116;11.656;2022-10-17T08:25:02;25.90;57.90
41924;DHT22;27613;48.116;11.656;2022-10-17T08:27:27;26.50;56.30
41924;DHT22;27613;48.116;11.656;2022-10-17T08:29:53;27.60;54.00
41924;DHT22;27613;48.116;11.656;2022-10-17T08:32:23;25.30;57.60
41924;DHT22;27613;48.116;11.656;2022-10-17T08:34:51;24.80;59.40
41924;DHT22;27613;48.116;11.656;2022-10-17T08:37:16;24.70;59.30
41924;DHT22;27613;48.116;11.656;2022-10-17T08:39:43;24.50;59.60
41924;DHT22;27613;48.116;11.656;2022-10-17T08:45:32;25.10;60.50
41924;DHT22;27613;48.116;11.656;2022-10-17T08:48:03;26.50;57.20
41924;DHT22;27613;48.116;11.656;2022-10-17T08:50:34;27.40;55.10
41924;DHT22;27613;48.116;11.656;2022-10-17T08:55:50;27.10;56.20
41924;DHT22;27613;48.116;11.656;2022-10-17T08:58:29;28.30;53.10
41924;DHT22;27613;48.116;11.656;2022-10-17T09:06:25;30.90;49.90
41924;DHT22;27613;48.116;11.656;2022-10-17T09:16:57;30.30;48.40
41924;DHT22;27613;48.116;11.656;2022-10-17T09:21:55;31.70;47.80
41924;DHT22;27613;48.116;11.656;2022-10-17T09:24:37;32.50;47.70
41924;DHT22;27613;48.116;11.656;2022-10-17T09:27:04;33.20;45.60
41924;DHT22;27613;48.116;11.656;2022-10-17T09:29:30;33.20;46.00
41924;DHT22;27613;48.116;11.656;2022-10-17T09:32:17;32.40;46.60
41924;DHT22;27613;48.116;11.656;2022-10-17T09:34:43;31.40;48.30
41924;DHT22;27613;48.116;11.656;2022-10-17T09:37:13;31.80;47.30
41924;DHT22;27613;48.116;11.656;2022-10-17T09:39:39;33.90;45.40
41924;DHT22;27613;48.116;11.656;2022-10-17T09:42:11;34.60;44.60
41924;DHT22;27613;48.116;11.656;2022-10-17T09:44:48;35.70;43.80
41924;DHT22;27613;48.116;11.656;2022-10-17T09:47:33;34.10;44.50
41924;DHT22;27613;48.116;11.656;2022-10-17T09:50:04;34.20;43.70
41924;DHT22;27613;48.116;11.656;2022-10-17T09:52:34;33.50;43.90
41924;DHT22;27613;48.116;11.656;2022-10-17T09:55:02;32.40;45.60
41924;DHT22;27613;48.116;11.656;2022-10-17T10:00:26;32.40;45.40
41924;DHT22;27613;48.116;11.656;2022-10-17T10:03:08;33.10;45.90
41924;DHT22;27613;48.116;11.656;2022-10-17T10:05:34;33.50;44.20
41924;DHT22;27613;48.116;11.656;2022-10-17T10:08:11;33.90;44.00
41924;DHT22;27613;48.116;11.656;2022-10-17T10:10:38;34.40;43.20
41924;DHT22;27613;48.116;11.656;2022-10-17T10:15:49;32.50;45.50
41924;DHT22;27613;48.116;11.656;2022-10-17T10:18:29;33.10;45.70
41924;DHT22;27613;48.116;11.656;2022-10-17T10:21:14;34.30;43.80
41924;DHT22;27613;48.116;11.656;2022-10-17T10:26:49;35.80;42.90
41924;DHT22;27613;48.116;11.656;2022-10-17T10:32:09;34.40;43.90
41924;DHT22;27613;48.116;11.656;2022-10-17T10:34:47;34.00;44.20
41924;DHT22;27613;48.116;11.656;2022-10-17T10:37:25;34.30;43.30
41924;DHT22;27613;48.116;11.656;2022-10-17T10:39:57;34.00;43.10
41924;DHT22;27613;48.116;11.656;2022-10-17T10:45:17;33.50;44.10
41924;DHT22;27613;48.116;11.656;2022-10-17T10:47:57;33.90;43.90
41924;DHT22;27613;48.116;11.656;2022-10-17T10:53:23;33.60;43.50
41924;DHT22;27613;48.116;11.656;2022-10-17T10:55:54;33.30;45.30
41924;DHT22;27613;48.116;11.656;2022-10-17T10:58:38;33.40;43.00
41924;DHT22;27613;48.116;11.656;2022-10-17T11:01:57;34.20;43.10
41924;DHT22;27613;48.116;11.656;2022-10-17T11:06:41;35.50;42.70
41924;DHT22;27613;48.116;11.656;2022-10-17T11:09:12;35.40;41.50
41924;DHT22;27613;48.116;11.656;2022-10-17T11:11:52;35.40;41.10
41924;DHT22;27613;48.116;11.656;2022-10-17T11:14:43;34.00;42.20
41924;DHT22;27613;48.116;11.656;2022-10-17T11:17:18;34.30;43.90
41924;DHT22;27613;48.116;11.656;2022-10-17T11:20:26;34.70;41.20
41924;DHT22;27613;48.116;11.656;2022-10-17T11:23:16;34.60;40.90
41924;DHT22;27613;48.116;11.656;2022-10-17T11:25:50;34.70;41.40
41924;DHT22;27613;48.116;11.656;2022-10-17T11:28:18;34.60;41.00
41924;DHT22;27613;48.116;11.656;2022-10-17T11:33:16;31.60;44.40
41924;DHT22;27613;48.116;11.656;2022-10-17T11:35:45;33.20;43.20
41924;DHT22;27613;48.116;11.656;2022-10-17T11:41:21;32.50;42.90
41924;DHT22;27613;48.116;11.656;2022-10-17T11:43:59;34.20;41.70
41924;DHT22;27613;48.116;11.656;2022-10-17T11:46:28;34.70;40.70
41924;DHT22;27613;48.116;11.656;2022-10-17T11:51:46;33.60;41.10
41924;DHT22;27613;48.116;11.656;2022-10-17T11:54:15;33.00;42.60
41924;DHT22;27613;48.116;11.656;2022-10-17T12:05:54;34.90;40.90
41924;DHT22;27613;48.116;11.656;2022-10-17T12:11:49;36.40;40.50
41924;DHT22;27613;48.116;11.656;2022-10-17T12:17:04;34.90;39.70
41924;DHT22;27613;48.116;11.656;2022-10-17T12:19:32;32.00;41.70
41924;DHT22;27613;48.116;11.656;2022-10-17T12:32:37;34.30;41.10
41924;DHT22;27613;48.116;11.656;2022-10-17T12:35:04;35.70;39.00
41924;DHT22;27613;48.116;11.656;2022-10-17T12:45:46;36.90;38.20
41924;DHT22;27613;48.116;11.656;2022-10-17T12:51:13;37.00;39.70
41924;DHT22;27613;48.116;11.656;2022-10-17T12:56:29;35.90;38.20
41924;DHT22;27613;48.116;11.656;2022-10-17T12:58:56;36.10;39.30
41924;DHT22;27613;48.116;11.656;2022-10-17T13:03:51;35.90;39.10
41924;DHT22;27613;48.116;11.656;2022-10-17T13:06:26;36.50;38.70
41924;DHT22;27613;48.116;11.656;2022-10-17T13:09:00;35.00;39.90
41924;DHT22;27613;48.116;11.656;2022-10-17T13:11:30;35.40;38.90
41924;DHT22;27613;48.116;11.656;2022-10-17T13:14:01;31.70;41.50
41924;DHT22;27613;48.116;11.656;2022-10-17T13:16:39;32.00;43.70
41924;DHT22;27613;48.116;11.656;2022-10-17T13:19:17;33.60;41.60
41924;DHT22;27613;48.116;11.656;2022-10-17T13:21:57;32.90;42.70
41924;DHT22;27613;48.116;11.656;2022-10-17T13:24:32;34.60;41.30
41924;DHT22;27613;48.116;11.656;2022-10-17T13:26:59;35.90;39.40
41924;DHT22;27613;48.116;11.656;2022-10-17T13:29:25;36.20;39.10
41924;DHT22;27613;48.116;11.656;2022-10-17T13:31:54;36.00;39.40
41924;DHT22;27613;48.116;11.656;2022-10-17T13:34:23;35.30;38.30
41924;DHT22;27613;48.116;11.656;2022-10-17T13:37:15;35.60;38.00
41924;DHT22;27613;48.116;11.656;2022-10-17T13:39:43;35.40;39.70
41924;DHT22;27613;48.116;11.656;2022-10-17T13:42:23;36.30;38.30
41924;DHT22;27613;48.116;11.656;2022-10-17T13:44:49;36.60;37.20
41924;DHT22;27613;48.116;11.656;2022-10-17T13:47:22;35.40;37.70
41924;DHT22;27613;48.116;11.656;2022-10-17T13:49:49;33.20;40.30
41924;DHT22;27613;48.116;11.656;2022-10-17T13:52:18;33.90;41.00
41924;DHT22;27613;48.116;11.656;2022-10-17T13:54:46;34.70;38.70
41924;DHT22;27613;48.116;11.656;2022-10-17T13:57:28;32.50;40.70
41924;DHT22;27613;48.116;11.656;2022-10-17T14:00:00;31.50;41.10
41924;DHT22;27613;48.116;11.656;2022-10-17T14:02:29;31.40;41.50
41924;DHT22;27613;48.116;11.656;2022-10-17T14:07:37;33.50;40.00
41924;DHT22;27613;48.116;11.656;2022-10-17T14:10:04;33.90;38.80
41924;DHT22;27613;48.116;11.656;2022-10-17T14:12:32;34.20;38.70
41924;DHT22;27613;48.116;11.656;2022-10-17T14:14:58;34.70;38.00
41924;DHT22;27613;48.116;11.656;2022-10-17T14:17:27;33.80;37.70
41924;DHT22;27613;48.116;11.656;2022-10-17T14:19:59;32.70;39.30
41924;DHT22;27613;48.116;11.656;2022-10-17T14:22:32;33.00;40.80
41924;DHT22;27613;48.116;11.656;2022-10-17T14:24:58;33.20;40.20
41924;DHT22;27613;48.116;11.656;2022-10-17T14:27:33;34.30;39.10
41924;DHT22;27613;48.116;11.656;2022-10-17T14:30:05;34.30;39.50
41924;DHT22;27613;48.116;11.656;2022-10-17T14:32:34;32.90;40.50
41924;DHT22;27613;48.116;11.656;2022-10-17T14:35:03;33.30;41.30
41924;DHT22;27613;48.116;11.656;2022-10-17T14:37:38;32.80;41.20
41924;DHT22;27613;48.116;11.656;2022-10-17T14:40:06;33.50;41.10
41924;DHT22;27613;48.116;11.656;2022-10-17T14:42:37;33.40;40.70
41924;DHT22;27613;48.116;11.656;2022-10-17T14:45:11;33.20;41.20
41924;DHT22;27613;48.116;11.656;2022-10-17T14:47:38;34.30;40.50
41924;DHT22;27613;48.116;11.656;2022-10-17T14:52:35;34.30;39.90
41924;DHT22;27613;48.116;11.656;2022-10-17T14:55:24;34.20;40.80
41924;DHT22;27613;48.116;11.656;2022-10-17T14:57:50;34.10;41.30
41924;DHT22;27613;48.116;11.656;2022-10-17T15:00:17;33.40;42.30
41924;DHT22;27613;48.116;11.656;2022-10-17T15:02:44;32.60;42.30
41924;DHT22;27613;48.116;11.656;2022-10-17T15:05:10;32.50;43.20
41924;DHT22;27613;48.116;11.656;2022-10-17T15:07:36;31.80;44.10
41924;DHT22;27613;48.116;11.656;2022-10-17T15:10:02;31.30;44.40
41924;DHT22;27613;48.116;11.656;2022-10-17T15:12:28;31.50;45.20
41924;DHT22;27613;48.116;11.656;2022-10-17T15:14:53;31.60;45.10
41924;DHT22;27613;48.116;11.656;2022-10-17T15:17:27;32.00;44.40
41924;DHT22;27613;48.116;11.656;2022-10-17T15:19:54;31.90;44.50
41924;DHT22;27613;48.116;11.656;2022-10-17T15:22:21;31.50;45.30
41924;DHT22;27613;48.116;11.656;2022-10-17T15:24:47;30.70;46.40
41924;DHT22;27613;48.116;11.656;2022-10-17T15:27:18;30.60;45.90
41924;DHT22;27613;48.116;11.656;2022-10-17T15:29:45;29.80;47.70
41924;DHT22;27613;48.116;11.656;2022-10-17T15:32:11;29.10;47.60
41924;DHT22;27613;48.116;11.656;2022-10-17T15:34:37;28.80;48.20
41924;DHT22;27613;48.116;11.656;2022-10-17T15:37:03;28.00;50.20
41924;DHT22;27613;48.116;11.656;2022-10-17T15:39:30;27.70;50.50
41924;DHT22;27613;48.116;11.656;2022-10-17T15:41:55;27.40;51.90
41924;DHT22;27613;48.116;11.656;2022-10-17T15:44:21;27.00;53.30
41924;DHT22;27613;48.116;11.656;2022-10-17T15:46:47;26.50;54.40
41924;DHT22;27613;48.116;11.656;2022-10-17T15:49:13;26.10;55.30
41924;DHT22;27613;48.116;11.656;2022-10-17T15:51:41;25.90;56.00
41924;DHT22;27613;48.116;11.656;2022-10-17T15:54:07;25.40;57.20
41924;DHT22;27613;48.116;11.656;2022-10-17T15:56:37;25.30;58.10
41924;DHT22;27613;48.116;11.656;2022-10-17T15:59:05;25.10;58.60
41924;DHT22;27613;48.116;11.656;2022-10-17T16:01:32;25.00;59.10
41924;DHT22;27613;48.116;11.656;2022-10-17T16:03:58;24.80;60.50
41924;DHT22;27613;48.116;11.656;2022-10-17T16:06:25;24.50;60.80
41924;DHT22;27613;48.116;11.656;2022-10-17T16:08:51;24.40;61.20
41924;DHT22;27613;48.116;11.656;2022-10-17T16:11:26;24.30;62.80
41924;DHT22;27613;48.116;11.656;2022-10-17T16:13:54;24.00;63.90
41924;DHT22;27613;48.116;11.656;2022-10-17T16:16:21;23.80;64.50
41924;DHT22;27613;48.116;11.656;2022-10-17T16:18:47;23.70;65.10
41924;DHT22;27613;48.116;11.656;2022-10-17T16:21:14;23.50;65.50
41924;DHT22;27613;48.116;11.656;2022-10-17T16:23:40;23.30;66.30
41924;DHT22;27613;48.116;11.656;2022-10-17T16:26:06;23.20;66.90
41924;DHT22;27613;48.116;11.656;2022-10-17T16:28:32;23.00;67.10
41924;DHT22;27613;48.116;11.656;2022-10-17T16:30:58;22.80;67.80
41924;DHT22;27613;48.116;11.656;2022-10-17T16:33:24;22.60;68.40
41924;DHT22;27613;48.116;11.656;2022-10-17T16:35:49;22.50;68.80
41924;DHT22;27613;48.116;11.656;2022-10-17T16:38:15;22.20;69.10
41924;DHT22;27613;48.116;11.656;2022-10-17T16:40:41;22.00;70.20
41924;DHT22;27613;48.116;11.656;2022-10-17T16:43:12;21.60;70.90
41924;DHT22;27613;48.116;11.656;2022-10-17T16:45:38;21.60;71.80
41924;DHT22;27613;48.116;11.656;2022-10-17T16:48:05;21.50;72.60
41924;DHT22;27613;48.116;11.656;2022-10-17T16:50:30;21.40;73.10
41924;DHT22;27613;48.116;11.656;2022-10-17T16:53:00;21.30;73.80
41924;DHT22;27613;48.116;11.656;2022-10-17T16:55:25;21.30;73.90
41924;DHT22;27613;48.116;11.656;2022-10-17T16:57:51;21.10;75.10
41924;DHT22;27613;48.116;11.656;2022-10-17T17:00:17;21.10;75.30
41924;DHT22;27613;48.116;11.656;2022-10-17T17:02:43;20.60;75.70
41924;DHT22;27613;48.116;11.656;2022-10-17T17:05:11;20.70;76.50
41924;DHT22;27613;48.116;11.656;2022-10-17T17:07:36;20.60;76.60
41924;DHT22;27613;48.116;11.656;2022-10-17T17:10:02;20.50;76.70
41924;DHT22;27613;48.116;11.656;2022-10-17T17:12:28;20.40;77.30
41924;DHT22;27613;48.116;11.656;2022-10-17T17:14:56;20.40;78.70
41924;DHT22;27613;48.116;11.656;2022-10-17T17:17:21;20.30;78.20
41924;DHT22;27613;48.116;11.656;2022-10-17T17:19:47;20.20;78.60
41924;DHT22;27613;48.116;11.656;2022-10-17T17:22:12;20.10;79.30
41924;DHT22;27613;48.116;11.656;2022-10-17T17:24:38;19.90;79.60
41924;DHT22;27613;48.116;11.656;2022-10-17T17:27:03;19.80;80.30
41924;DHT22;27613;48.116;11.656;2022-10-17T17:29:29;19.80;80.70
41924;DHT22;27613;48.116;11.656;2022-10-17T17:31:54;19.70;80.90